Archival Weather

Snohomish County (Paine Fld)

Everett, Washington (KPAE)

Report from: Friday, November 10, 2023 11:41 PM PST
Current time: Monday, June 17, 2024 1:46 AM PDT

Current weather – Weather history – Daily summaries
Weather forecast

Temperature9.4°C (48.9°F)
Wind chill5.7°C (42.3°F)
Dew point4.4°C (39.9°F)
Winds 17 kts (8.7 m/s, 19.6 mph) South-Southeast (160°)
Wind gusts 26 kts (13.4 m/s, 29.9 mph)
Peak wind 33 kts (17 m/s, 38 mph) South-Southeast (160°) at 06:57
Visibility10 mi. (16.1 km)
Clouds Ceiling: Broken clouds 2,600 ft. (792 m)
Overcast 3,700 ft. (1,128 m)
Altimeter29.88 in.Hg (1012 mB)
PrecipitiationTrace
Precip. events Rain ended 7:08 AM
Relative humidity71 %
Density altitude-500 ft. (-152 m)
Remarks Fully automated report
Automated weather observing station with precipitation discriminator
Flight conditions Marginal Visual Meteorological Conditions
Raw dataKPAE 110741Z AUTO 16017G26KT 10SM BKN026 OVC037 09/04 A2988 RMK AO2 PK WND 16033/0657 RAE08 P0000 T00940044
An error has occurred. This application may no longer respond until reloaded. Reload 🗙